sensor_id;sensor_type;location;lat;lon;timestamp;temperature;humidity
69990;DHT22;57331;52.054;5.294;2023-05-31T00:19:08;14.60;65.40
69990;DHT22;57331;52.054;5.294;2023-05-31T00:26:30;12.40;64.60
69990;DHT22;57331;52.054;5.294;2023-05-31T00:36:23;14.20;66.10
69990;DHT22;57331;52.054;5.294;2023-05-31T00:43:45;14.10;54.30
69990;DHT22;57331;52.054;5.294;2023-05-31T00:46:26;12.40;61.00
69990;DHT22;57331;52.054;5.294;2023-05-31T00:48:57;12.80;50.30
69990;DHT22;57331;52.054;5.294;2023-05-31T00:51:25;12.70;50.50
69990;DHT22;57331;52.054;5.294;2023-05-31T00:53:56;12.70;50.60
69990;DHT22;57331;52.054;5.294;2023-05-31T01:01:23;12.80;50.20
69990;DHT22;57331;52.054;5.294;2023-05-31T01:06:23;12.40;66.50
69990;DHT22;57331;52.054;5.294;2023-05-31T01:08:51;12.60;51.00
69990;DHT22;57331;52.054;5.294;2023-05-31T01:14:16;12.60;50.00
69990;DHT22;57331;52.054;5.294;2023-05-31T01:16:53;12.50;51.30
69990;DHT22;57331;52.054;5.294;2023-05-31T01:19:42;11.40;53.10
69990;DHT22;57331;52.054;5.294;2023-05-31T01:27:36;13.90;68.00
69990;DHT22;57331;52.054;5.294;2023-05-31T01:30:05;12.50;51.80
69990;DHT22;57331;52.054;5.294;2023-05-31T01:32:33;12.50;51.90
69990;DHT22;57331;52.054;5.294;2023-05-31T01:35:02;12.50;51.60
69990;DHT22;57331;52.054;5.294;2023-05-31T01:37:30;13.30;68.00
69990;DHT22;57331;52.054;5.294;2023-05-31T01:39:57;11.50;54.10
69990;DHT22;57331;52.054;5.294;2023-05-31T01:42:26;12.40;52.20
69990;DHT22;57331;52.054;5.294;2023-05-31T01:44:55;12.40;52.40
69990;DHT22;57331;52.054;5.294;2023-05-31T01:47:23;12.30;52.40
69990;DHT22;57331;52.054;5.294;2023-05-31T01:49:51;12.20;51.60
69990;DHT22;57331;52.054;5.294;2023-05-31T01:52:19;12.30;52.60
69990;DHT22;57331;52.054;5.294;2023-05-31T01:54:47;11.80;64.40
69990;DHT22;57331;52.054;5.294;2023-05-31T02:02:10;11.40;61.20
69990;DHT22;57331;52.054;5.294;2023-05-31T02:04:38;10.90;67.80
69990;DHT22;57331;52.054;5.294;2023-05-31T02:07:05;12.00;68.40
69990;DHT22;57331;52.054;5.294;2023-05-31T02:09:31;11.10;68.10
69990;DHT22;57331;52.054;5.294;2023-05-31T02:11:58;11.30;68.30
69990;DHT22;57331;52.054;5.294;2023-05-31T02:21:52;10.80;66.70
69990;DHT22;57331;52.054;5.294;2023-05-31T02:24:19;10.90;64.60
69990;DHT22;57331;52.054;5.294;2023-05-31T02:34:08;11.10;64.30
69990;DHT22;57331;52.054;5.294;2023-05-31T02:44:03;12.20;69.80
69990;DHT22;57331;52.054;5.294;2023-05-31T02:46:30;10.70;69.20
69990;DHT22;57331;52.054;5.294;2023-05-31T03:09:41;12.90;68.30
69990;DHT22;57331;52.054;5.294;2023-05-31T03:12:08;11.90;60.20
69990;DHT22;57331;52.054;5.294;2023-05-31T03:26:58;12.80;71.40
69990;DHT22;57331;52.054;5.294;2023-05-31T03:42:27;11.10;71.00
69990;DHT22;57331;52.054;5.294;2023-05-31T03:49:49;11.40;65.20
69990;DHT22;57331;52.054;5.294;2023-05-31T04:21:52;10.50;71.70
69990;DHT22;57331;52.054;5.294;2023-05-31T04:39:19;13.10;73.00
69990;DHT22;57331;52.054;5.294;2023-05-31T04:46:47;13.30;72.70
69990;DHT22;57331;52.054;5.294;2023-05-31T04:54:09;13.00;72.90
69990;DHT22;57331;52.054;5.294;2023-05-31T04:59:04;11.30;72.10
69990;DHT22;57331;52.054;5.294;2023-05-31T05:04:08;13.60;65.20
69990;DHT22;57331;52.054;5.294;2023-05-31T05:23:56;13.30;66.80
69990;DHT22;57331;52.054;5.294;2023-05-31T05:43:42;13.00;55.40
69990;DHT22;57331;52.054;5.294;2023-05-31T05:51:09;13.30;55.30
69990;DHT22;57331;52.054;5.294;2023-05-31T05:58:46;12.20;69.70
69990;DHT22;57331;52.054;5.294;2023-05-31T06:06:39;12.40;68.90
69990;DHT22;57331;52.054;5.294;2023-05-31T06:09:07;12.70;68.90
69990;DHT22;57331;52.054;5.294;2023-05-31T06:11:34;12.60;68.40
69990;DHT22;57331;52.054;5.294;2023-05-31T06:24:01;14.30;52.70
69990;DHT22;57331;52.054;5.294;2023-05-31T06:26:29;13.70;57.80
69990;DHT22;57331;52.054;5.294;2023-05-31T06:28:57;14.40;52.30
69990;DHT22;57331;52.054;5.294;2023-05-31T06:36:41;13.50;66.20
69990;DHT22;57331;52.054;5.294;2023-05-31T06:39:09;15.00;63.20
69990;DHT22;57331;52.054;5.294;2023-05-31T06:41:37;16.20;55.60
69990;DHT22;57331;52.054;5.294;2023-05-31T06:49:26;16.30;56.90
69990;DHT22;57331;52.054;5.294;2023-05-31T06:55:06;16.60;50.80
69990;DHT22;57331;52.054;5.294;2023-05-31T07:07:29;16.20;64.00
69990;DHT22;57331;52.054;5.294;2023-05-31T07:14:50;17.20;53.70
69990;DHT22;57331;52.054;5.294;2023-05-31T07:19:48;16.40;47.10
69990;DHT22;57331;52.054;5.294;2023-05-31T07:22:16;16.50;47.00
69990;DHT22;57331;52.054;5.294;2023-05-31T07:24:44;16.70;46.40
69990;DHT22;57331;52.054;5.294;2023-05-31T07:27:11;15.80;54.20
69990;DHT22;57331;52.054;5.294;2023-05-31T07:29:38;15.60;59.40
69990;DHT22;57331;52.054;5.294;2023-05-31T07:39:29;17.70;58.40
69990;DHT22;57331;52.054;5.294;2023-05-31T07:41:56;16.30;43.80
69990;DHT22;57331;52.054;5.294;2023-05-31T07:46:52;19.00;57.80
69990;DHT22;57331;52.054;5.294;2023-05-31T08:04:08;17.40;50.00
69990;DHT22;57331;52.054;5.294;2023-05-31T08:06:35;17.60;38.40
69990;DHT22;57331;52.054;5.294;2023-05-31T08:09:04;20.00;41.20
69990;DHT22;57331;52.054;5.294;2023-05-31T08:16:33;18.30;50.50
69990;DHT22;57331;52.054;5.294;2023-05-31T08:21:27;18.50;49.30
69990;DHT22;57331;52.054;5.294;2023-05-31T08:26:22;20.40;49.30
69990;DHT22;57331;52.054;5.294;2023-05-31T08:33:58;21.60;39.80
69990;DHT22;57331;52.054;5.294;2023-05-31T08:38:53;21.70;46.50
69990;DHT22;57331;52.054;5.294;2023-05-31T08:41:22;21.00;32.40
69990;DHT22;57331;52.054;5.294;2023-05-31T08:48:56;21.70;44.30
69990;DHT22;57331;52.054;5.294;2023-05-31T08:51:26;20.50;43.20
69990;DHT22;57331;52.054;5.294;2023-05-31T08:53:56;21.30;36.50
69990;DHT22;57331;52.054;5.294;2023-05-31T08:56:24;23.60;31.60
69990;DHT22;57331;52.054;5.294;2023-05-31T09:01:22;21.10;32.40
69990;DHT22;57331;52.054;5.294;2023-05-31T09:03:52;20.90;39.30
69990;DHT22;57331;52.054;5.294;2023-05-31T09:06:20;20.90;39.30
69990;DHT22;57331;52.054;5.294;2023-05-31T09:11:15;24.00;40.10
69990;DHT22;57331;52.054;5.294;2023-05-31T09:13:42;22.30;38.90
69990;DHT22;57331;52.054;5.294;2023-05-31T09:16:10;21.80;37.60
69990;DHT22;57331;52.054;5.294;2023-05-31T09:18:38;23.90;31.30
69990;DHT22;57331;52.054;5.294;2023-05-31T09:21:10;23.70;36.70
69990;DHT22;57331;52.054;5.294;2023-05-31T09:23:54;24.50;36.60
69990;DHT22;57331;52.054;5.294;2023-05-31T09:26:22;22.40;34.80
69990;DHT22;57331;52.054;5.294;2023-05-31T09:28:51;24.10;25.10
69990;DHT22;57331;52.054;5.294;2023-05-31T09:31:19;23.60;34.10
69990;DHT22;57331;52.054;5.294;2023-05-31T09:33:50;24.50;34.20
69990;DHT22;57331;52.054;5.294;2023-05-31T09:36:29;25.20;23.90
69990;DHT22;57331;52.054;5.294;2023-05-31T09:39:04;25.90;28.70
69990;DHT22;57331;52.054;5.294;2023-05-31T09:41:32;25.60;33.10
69990;DHT22;57331;52.054;5.294;2023-05-31T09:43:59;23.50;31.30
69990;DHT22;57331;52.054;5.294;2023-05-31T09:46:26;24.00;31.00
69990;DHT22;57331;52.054;5.294;2023-05-31T09:49:01;24.10;30.80
69990;DHT22;57331;52.054;5.294;2023-05-31T09:51:29;26.30;31.10
69990;DHT22;57331;52.054;5.294;2023-05-31T09:54:08;25.50;29.80
69990;DHT22;57331;52.054;5.294;2023-05-31T09:56:38;25.60;21.00
69990;DHT22;57331;52.054;5.294;2023-05-31T09:59:05;27.10;22.80
69990;DHT22;57331;52.054;5.294;2023-05-31T10:01:33;25.90;28.80
69990;DHT22;57331;52.054;5.294;2023-05-31T10:04:02;26.80;30.80
69990;DHT22;57331;52.054;5.294;2023-05-31T10:06:31;25.20;28.70
69990;DHT22;57331;52.054;5.294;2023-05-31T10:09:07;26.20;29.50
69990;DHT22;57331;52.054;5.294;2023-05-31T10:11:41;26.10;28.10
69990;DHT22;57331;52.054;5.294;2023-05-31T10:14:24;27.60;27.60
69990;DHT22;57331;52.054;5.294;2023-05-31T10:16:54;25.90;26.10
69990;DHT22;57331;52.054;5.294;2023-05-31T10:19:26;27.00;18.20
69990;DHT22;57331;52.054;5.294;2023-05-31T10:21:56;28.00;26.10
69990;DHT22;57331;52.054;5.294;2023-05-31T10:24:40;27.40;17.50
69990;DHT22;57331;52.054;5.294;2023-05-31T10:27:12;27.50;24.90
69990;DHT22;57331;52.054;5.294;2023-05-31T10:29:43;26.90;24.20
69990;DHT22;57331;52.054;5.294;2023-05-31T10:32:20;29.10;25.30
69990;DHT22;57331;52.054;5.294;2023-05-31T10:34:50;26.90;23.70
69990;DHT22;57331;52.054;5.294;2023-05-31T10:37:17;26.60;23.10
69990;DHT22;57331;52.054;5.294;2023-05-31T10:40:08;28.10;23.50
69990;DHT22;57331;52.054;5.294;2023-05-31T10:45:37;29.10;23.60
69990;DHT22;57331;52.054;5.294;2023-05-31T10:51:02;27.40;22.80
69990;DHT22;57331;52.054;5.294;2023-05-31T10:53:31;27.40;22.70
69990;DHT22;57331;52.054;5.294;2023-05-31T10:56:03;28.50;15.70
69990;DHT22;57331;52.054;5.294;2023-05-31T11:01:13;28.80;14.40
69990;DHT22;57331;52.054;5.294;2023-05-31T11:03:51;28.60;21.00
69990;DHT22;57331;52.054;5.294;2023-05-31T11:06:27;30.30;20.50
69990;DHT22;57331;52.054;5.294;2023-05-31T11:09:10;30.30;21.00
69990;DHT22;57331;52.054;5.294;2023-05-31T11:14:27;30.20;19.40
69990;DHT22;57331;52.054;5.294;2023-05-31T11:19:32;31.10;20.80
69990;DHT22;57331;52.054;5.294;2023-05-31T11:22:13;30.00;13.10
69990;DHT22;57331;52.054;5.294;2023-05-31T11:27:19;30.40;11.90
69990;DHT22;57331;52.054;5.294;2023-05-31T11:32:20;29.90;16.50
69990;DHT22;57331;52.054;5.294;2023-05-31T11:34:52;29.90;17.50
69990;DHT22;57331;52.054;5.294;2023-05-31T11:37:22;30.60;11.20
69990;DHT22;57331;52.054;5.294;2023-05-31T11:39:50;31.10;16.50
69990;DHT22;57331;52.054;5.294;2023-05-31T11:42:17;31.00;17.20
69990;DHT22;57331;52.054;5.294;2023-05-31T11:44:45;31.80;16.70
69990;DHT22;57331;52.054;5.294;2023-05-31T11:50:06;31.10;9.60
69990;DHT22;57331;52.054;5.294;2023-05-31T11:52:33;31.20;10.30
69990;DHT22;57331;52.054;5.294;2023-05-31T11:55:07;31.30;10.10
69990;DHT22;57331;52.054;5.294;2023-05-31T11:57:42;31.30;9.60
69990;DHT22;57331;52.054;5.294;2023-05-31T12:00:12;31.60;10.00
69990;DHT22;57331;52.054;5.294;2023-05-31T12:02:40;32.40;15.30
69990;DHT22;57331;52.054;5.294;2023-05-31T12:05:16;31.90;9.40
69990;DHT22;57331;52.054;5.294;2023-05-31T12:07:44;32.10;8.60
69990;DHT22;57331;52.054;5.294;2023-05-31T12:10:12;31.20;14.20
69990;DHT22;57331;52.054;5.294;2023-05-31T12:12:39;32.20;8.90
69990;DHT22;57331;52.054;5.294;2023-05-31T12:15:10;33.80;15.10
69990;DHT22;57331;52.054;5.294;2023-05-31T12:17:39;32.40;8.70
69990;DHT22;57331;52.054;5.294;2023-05-31T12:20:07;32.50;8.60
69990;DHT22;57331;52.054;5.294;2023-05-31T12:22:39;32.30;8.00
69990;DHT22;57331;52.054;5.294;2023-05-31T12:25:07;32.00;8.10
69990;DHT22;57331;52.054;5.294;2023-05-31T12:27:34;31.90;14.10
69990;DHT22;57331;52.054;5.294;2023-05-31T12:30:20;31.90;8.40
69990;DHT22;57331;52.054;5.294;2023-05-31T12:32:57;30.80;14.10
69990;DHT22;57331;52.054;5.294;2023-05-31T12:35:25;31.90;8.40
69990;DHT22;57331;52.054;5.294;2023-05-31T12:37:52;32.10;8.30
69990;DHT22;57331;52.054;5.294;2023-05-31T12:40:21;32.40;7.90
69990;DHT22;57331;52.054;5.294;2023-05-31T12:42:50;32.50;7.80
69990;DHT22;57331;52.054;5.294;2023-05-31T12:45:18;32.50;7.90
69990;DHT22;57331;52.054;5.294;2023-05-31T12:47:56;33.70;14.00
69990;DHT22;57331;52.054;5.294;2023-05-31T12:50:27;32.10;12.30
69990;DHT22;57331;52.054;5.294;2023-05-31T12:52:56;31.80;12.10
69990;DHT22;57331;52.054;5.294;2023-05-31T12:55:23;32.90;7.20
69990;DHT22;57331;52.054;5.294;2023-05-31T12:57:51;32.80;6.70
69990;DHT22;57331;52.054;5.294;2023-05-31T13:00:19;32.40;11.50
69990;DHT22;57331;52.054;5.294;2023-05-31T13:02:46;34.00;12.00
69990;DHT22;57331;52.054;5.294;2023-05-31T13:05:13;33.40;12.50
69990;DHT22;57331;52.054;5.294;2023-05-31T13:07:40;33.70;12.60
69990;DHT22;57331;52.054;5.294;2023-05-31T13:10:08;32.60;6.30
69990;DHT22;57331;52.054;5.294;2023-05-31T13:12:38;32.80;6.50
69990;DHT22;57331;52.054;5.294;2023-05-31T13:15:06;32.90;6.30
69990;DHT22;57331;52.054;5.294;2023-05-31T13:17:33;33.00;6.10
69990;DHT22;57331;52.054;5.294;2023-05-31T13:20:00;33.00;6.00
69990;DHT22;57331;52.054;5.294;2023-05-31T13:22:39;34.30;12.30
69990;DHT22;57331;52.054;5.294;2023-05-31T13:25:07;33.80;11.80
69990;DHT22;57331;52.054;5.294;2023-05-31T13:27:34;33.20;6.20
69990;DHT22;57331;52.054;5.294;2023-05-31T13:30:01;32.60;12.30
69990;DHT22;57331;52.054;5.294;2023-05-31T13:32:28;33.30;7.00
69990;DHT22;57331;52.054;5.294;2023-05-31T13:34:56;34.00;12.60
69990;DHT22;57331;52.054;5.294;2023-05-31T13:37:26;32.60;12.60
69990;DHT22;57331;52.054;5.294;2023-05-31T13:39:53;32.70;12.40
69990;DHT22;57331;52.054;5.294;2023-05-31T13:42:22;32.90;12.30
69990;DHT22;57331;52.054;5.294;2023-05-31T13:44:49;32.90;7.60
69990;DHT22;57331;52.054;5.294;2023-05-31T13:47:16;32.70;7.60
69990;DHT22;57331;52.054;5.294;2023-05-31T13:49:43;32.60;8.00
69990;DHT22;57331;52.054;5.294;2023-05-31T13:52:11;33.40;13.90
69990;DHT22;57331;52.054;5.294;2023-05-31T13:54:41;32.30;8.30
69990;DHT22;57331;52.054;5.294;2023-05-31T13:57:08;32.40;13.50
69990;DHT22;57331;52.054;5.294;2023-05-31T13:59:35;32.90;14.00
69990;DHT22;57331;52.054;5.294;2023-05-31T14:02:02;33.20;13.80
69990;DHT22;57331;52.054;5.294;2023-05-31T14:04:30;32.50;8.10
69990;DHT22;57331;52.054;5.294;2023-05-31T14:06:57;32.20;8.60
69990;DHT22;57331;52.054;5.294;2023-05-31T14:09:24;32.10;8.80
69990;DHT22;57331;52.054;5.294;2023-05-31T14:11:51;31.80;14.70
69990;DHT22;57331;52.054;5.294;2023-05-31T14:14:18;31.90;14.40
69990;DHT22;57331;52.054;5.294;2023-05-31T14:16:46;32.20;15.50
69990;DHT22;57331;52.054;5.294;2023-05-31T14:19:13;32.50;15.90
69990;DHT22;57331;52.054;5.294;2023-05-31T14:21:41;32.20;15.60
69990;DHT22;57331;52.054;5.294;2023-05-31T14:24:09;31.50;15.30
69990;DHT22;57331;52.054;5.294;2023-05-31T14:26:36;32.90;15.80
69990;DHT22;57331;52.054;5.294;2023-05-31T14:29:04;32.40;14.30
69990;DHT22;57331;52.054;5.294;2023-05-31T14:31:31;32.50;9.40
69990;DHT22;57331;52.054;5.294;2023-05-31T14:33:58;32.40;9.00
69990;DHT22;57331;52.054;5.294;2023-05-31T14:36:25;32.80;15.70
69990;DHT22;57331;52.054;5.294;2023-05-31T14:38:53;32.00;9.50
69990;DHT22;57331;52.054;5.294;2023-05-31T14:41:20;32.80;15.90
69990;DHT22;57331;52.054;5.294;2023-05-31T14:43:47;31.10;14.90
69990;DHT22;57331;52.054;5.294;2023-05-31T14:46:15;32.20;9.70
69990;DHT22;57331;52.054;5.294;2023-05-31T14:48:42;31.10;15.00
69990;DHT22;57331;52.054;5.294;2023-05-31T14:51:09;32.50;15.40
69990;DHT22;57331;52.054;5.294;2023-05-31T14:53:36;32.50;14.50
69990;DHT22;57331;52.054;5.294;2023-05-31T14:56:03;32.60;10.30
69990;DHT22;57331;52.054;5.294;2023-05-31T14:58:44;32.50;14.20
69990;DHT22;57331;52.054;5.294;2023-05-31T15:01:13;31.70;13.60
69990;DHT22;57331;52.054;5.294;2023-05-31T15:03:40;33.00;14.50
69990;DHT22;57331;52.054;5.294;2023-05-31T15:06:08;31.10;13.70
69990;DHT22;57331;52.054;5.294;2023-05-31T15:08:35;31.80;14.80
69990;DHT22;57331;52.054;5.294;2023-05-31T15:11:02;33.70;16.40
69990;DHT22;57331;52.054;5.294;2023-05-31T15:13:29;33.00;16.30
69990;DHT22;57331;52.054;5.294;2023-05-31T15:15:57;32.80;15.70
69990;DHT22;57331;52.054;5.294;2023-05-31T15:18:24;32.50;15.50
69990;DHT22;57331;52.054;5.294;2023-05-31T15:20:51;31.10;15.50
69990;DHT22;57331;52.054;5.294;2023-05-31T15:23:18;31.00;15.50
69990;DHT22;57331;52.054;5.294;2023-05-31T15:25:45;32.20;10.20
69990;DHT22;57331;52.054;5.294;2023-05-31T15:28:12;31.10;15.60
69990;DHT22;57331;52.054;5.294;2023-05-31T15:30:39;32.70;15.70
69990;DHT22;57331;52.054;5.294;2023-05-31T15:33:06;31.50;15.60
69990;DHT22;57331;52.054;5.294;2023-05-31T15:35:33;32.00;10.20
69990;DHT22;57331;52.054;5.294;2023-05-31T15:38:01;31.70;10.30
69990;DHT22;57331;52.054;5.294;2023-05-31T15:40:28;31.50;10.50
69990;DHT22;57331;52.054;5.294;2023-05-31T15:42:55;32.00;16.70
69990;DHT22;57331;52.054;5.294;2023-05-31T15:45:22;32.10;16.80
69990;DHT22;57331;52.054;5.294;2023-05-31T15:47:49;31.60;10.90
69990;DHT22;57331;52.054;5.294;2023-05-31T15:50:16;31.70;10.90
69990;DHT22;57331;52.054;5.294;2023-05-31T15:52:43;31.80;10.70
69990;DHT22;57331;52.054;5.294;2023-05-31T15:55:10;30.90;16.20
69990;DHT22;57331;52.054;5.294;2023-05-31T15:57:37;31.50;10.80
69990;DHT22;57331;52.054;5.294;2023-05-31T16:00:05;31.50;11.10
69990;DHT22;57331;52.054;5.294;2023-05-31T16:02:37;30.70;15.50
69990;DHT22;57331;52.054;5.294;2023-05-31T16:05:04;29.70;15.80
69990;DHT22;57331;52.054;5.294;2023-05-31T16:07:34;30.20;17.20
69990;DHT22;57331;52.054;5.294;2023-05-31T16:10:01;30.80;17.30
69990;DHT22;57331;52.054;5.294;2023-05-31T16:12:29;30.70;11.60
69990;DHT22;57331;52.054;5.294;2023-05-31T16:14:56;29.10;16.30
69990;DHT22;57331;52.054;5.294;2023-05-31T16:17:25;30.60;18.10
69990;DHT22;57331;52.054;5.294;2023-05-31T16:19:52;29.80;17.40
69990;DHT22;57331;52.054;5.294;2023-05-31T16:22:19;29.60;18.30
69990;DHT22;57331;52.054;5.294;2023-05-31T16:24:46;29.50;18.50
69990;DHT22;57331;52.054;5.294;2023-05-31T16:27:14;29.60;18.70
69990;DHT22;57331;52.054;5.294;2023-05-31T16:29:41;30.60;19.70
69990;DHT22;57331;52.054;5.294;2023-05-31T16:32:08;29.80;13.00
69990;DHT22;57331;52.054;5.294;2023-05-31T16:34:36;31.20;19.30
69990;DHT22;57331;52.054;5.294;2023-05-31T16:37:03;28.60;17.60
69990;DHT22;57331;52.054;5.294;2023-05-31T16:39:32;29.70;18.50
69990;DHT22;57331;52.054;5.294;2023-05-31T16:41:59;28.60;18.20
69990;DHT22;57331;52.054;5.294;2023-05-31T16:44:26;28.20;17.80
69990;DHT22;57331;52.054;5.294;2023-05-31T16:46:53;29.40;18.60
69990;DHT22;57331;52.054;5.294;2023-05-31T16:49:20;28.20;17.90
69990;DHT22;57331;52.054;5.294;2023-05-31T16:51:47;30.20;19.00
69990;DHT22;57331;52.054;5.294;2023-05-31T16:54:14;29.60;19.60
69990;DHT22;57331;52.054;5.294;2023-05-31T16:56:41;29.60;19.10
69990;DHT22;57331;52.054;5.294;2023-05-31T16:59:09;27.90;18.30
69990;DHT22;57331;52.054;5.294;2023-05-31T17:01:36;28.40;18.60
69990;DHT22;57331;52.054;5.294;2023-05-31T17:04:03;30.00;19.60
69990;DHT22;57331;52.054;5.294;2023-05-31T17:06:30;30.50;20.00
69990;DHT22;57331;52.054;5.294;2023-05-31T17:08:57;30.30;20.30
69990;DHT22;57331;52.054;5.294;2023-05-31T17:13:53;28.40;19.00
69990;DHT22;57331;52.054;5.294;2023-05-31T17:16:20;27.90;19.10
69990;DHT22;57331;52.054;5.294;2023-05-31T17:18:46;27.30;18.60
69990;DHT22;57331;52.054;5.294;2023-05-31T17:23:42;28.80;20.20
69990;DHT22;57331;52.054;5.294;2023-05-31T17:28:36;29.80;18.20
69990;DHT22;57331;52.054;5.294;2023-05-31T17:33:31;27.60;16.00
69990;DHT22;57331;52.054;5.294;2023-05-31T17:40:53;29.10;21.80
69990;DHT22;57331;52.054;5.294;2023-05-31T17:45:48;25.90;20.70
69990;DHT22;57331;52.054;5.294;2023-05-31T17:48:16;27.00;22.20
69990;DHT22;57331;52.054;5.294;2023-05-31T17:55:37;25.20;22.70
69990;DHT22;57331;52.054;5.294;2023-05-31T17:58:04;26.20;22.60
69990;DHT22;57331;52.054;5.294;2023-05-31T18:00:31;25.90;23.90
69990;DHT22;57331;52.054;5.294;2023-05-31T18:05:26;25.40;23.50
69990;DHT22;57331;52.054;5.294;2023-05-31T18:07:53;25.00;23.40
69990;DHT22;57331;52.054;5.294;2023-05-31T18:15:15;26.60;26.10
69990;DHT22;57331;52.054;5.294;2023-05-31T18:17:42;25.90;25.80
69990;DHT22;57331;52.054;5.294;2023-05-31T18:20:09;24.60;22.40
69990;DHT22;57331;52.054;5.294;2023-05-31T18:22:36;24.70;24.70
69990;DHT22;57331;52.054;5.294;2023-05-31T18:25:04;25.60;26.50
69990;DHT22;57331;52.054;5.294;2023-05-31T18:27:31;24.60;23.40
69990;DHT22;57331;52.054;5.294;2023-05-31T18:29:58;25.70;28.90
69990;DHT22;57331;52.054;5.294;2023-05-31T18:34:53;23.40;28.30
69990;DHT22;57331;52.054;5.294;2023-05-31T18:37:21;24.50;20.30
69990;DHT22;57331;52.054;5.294;2023-05-31T18:39:49;24.40;27.10
69990;DHT22;57331;52.054;5.294;2023-05-31T18:47:12;23.00;30.60
69990;DHT22;57331;52.054;5.294;2023-05-31T18:54:34;21.90;32.90
69990;DHT22;57331;52.054;5.294;2023-05-31T18:57:01;23.30;32.90
69990;DHT22;57331;52.054;5.294;2023-05-31T18:59:29;23.20;25.60
69990;DHT22;57331;52.054;5.294;2023-05-31T19:02:00;21.40;27.20
69990;DHT22;57331;52.054;5.294;2023-05-31T19:04:28;23.20;36.40
69990;DHT22;57331;52.054;5.294;2023-05-31T19:09:23;20.60;36.10
69990;DHT22;57331;52.054;5.294;2023-05-31T19:14:18;21.60;27.30
69990;DHT22;57331;52.054;5.294;2023-05-31T19:21:41;19.60;34.90
69990;DHT22;57331;52.054;5.294;2023-05-31T19:26:37;19.70;29.80
69990;DHT22;57331;52.054;5.294;2023-05-31T19:46:21;18.50;44.10
69990;DHT22;57331;52.054;5.294;2023-05-31T19:56:16;19.50;48.60
69990;DHT22;57331;52.054;5.294;2023-05-31T19:58:43;19.10;33.90
69990;DHT22;57331;52.054;5.294;2023-05-31T20:01:10;19.10;36.30
69990;DHT22;57331;52.054;5.294;2023-05-31T20:03:37;19.00;38.10
69990;DHT22;57331;52.054;5.294;2023-05-31T20:06:05;18.90;42.10
69990;DHT22;57331;52.054;5.294;2023-05-31T20:15:56;17.80;46.20
69990;DHT22;57331;52.054;5.294;2023-05-31T20:28:12;19.20;48.60
69990;DHT22;57331;52.054;5.294;2023-05-31T20:30:39;19.00;48.80
69990;DHT22;57331;52.054;5.294;2023-05-31T20:33:06;19.40;42.80
69990;DHT22;57331;52.054;5.294;2023-05-31T20:38:01;19.20;41.60
69990;DHT22;57331;52.054;5.294;2023-05-31T20:42:56;18.80;47.70
69990;DHT22;57331;52.054;5.294;2023-05-31T20:50:19;17.60;35.70
69990;DHT22;57331;52.054;5.294;2023-05-31T21:00:10;17.80;37.90
69990;DHT22;57331;52.054;5.294;2023-05-31T21:05:05;18.60;47.10
69990;DHT22;57331;52.054;5.294;2023-05-31T21:24:47;16.80;37.30
69990;DHT22;57331;52.054;5.294;2023-05-31T21:46:56;16.20;52.20
69990;DHT22;57331;52.054;5.294;2023-05-31T21:54:17;14.60;53.70
69990;DHT22;57331;52.054;5.294;2023-05-31T21:59:12;14.50;49.90
69990;DHT22;57331;52.054;5.294;2023-05-31T22:21:20;14.90;42.20
69990;DHT22;57331;52.054;5.294;2023-05-31T22:23:49;14.80;42.20
69990;DHT22;57331;52.054;5.294;2023-05-31T22:31:14;16.10;58.20
69990;DHT22;57331;52.054;5.294;2023-05-31T22:33:44;16.00;58.30
69990;DHT22;57331;52.054;5.294;2023-05-31T22:36:11;15.50;58.10
69990;DHT22;57331;52.054;5.294;2023-05-31T22:38:38;14.40;57.70
69990;DHT22;57331;52.054;5.294;2023-05-31T22:41:05;14.00;57.90
69990;DHT22;57331;52.054;5.294;2023-05-31T22:45:59;14.30;58.30
69990;DHT22;57331;52.054;5.294;2023-05-31T22:58:19;15.80;59.40
69990;DHT22;57331;52.054;5.294;2023-05-31T23:10:36;14.70;53.30
69990;DHT22;57331;52.054;5.294;2023-05-31T23:15:35;15.80;52.00
69990;DHT22;57331;52.054;5.294;2023-05-31T23:18:04;15.70;59.70
69990;DHT22;57331;52.054;5.294;2023-05-31T23:25:36;15.70;60.00
69990;DHT22;57331;52.054;5.294;2023-05-31T23:28:03;15.50;52.20
69990;DHT22;57331;52.054;5.294;2023-05-31T23:42:47;12.70;59.60
69990;DHT22;57331;52.054;5.294;2023-05-31T23:50:09;14.30;50.70
69990;DHT22;57331;52.054;5.294;2023-05-31T23:55:04;13.60;45.30
